Time;durP1;ratioP1;P1;durP2;ratioP2;P2;SDS_P1;SDS_P2;PMS_P1;PMS_P2;Temp;Humidity;BMP_temperature;BMP_pressure;BME280_temperature;BME280_humidity;BME280_pressure;Samples;Min_cycle;Max_cycle;Signal;HPM_P1;HPM_P2
2021/06/26 01:09:50;;;;;;;0.95;0.50;;;;;;;10.72;100.00;100154.75;6257926;22;20463;-55
2021/06/26 01:12:54;;;;;;;1.98;0.60;;;;;;;10.69;100.00;100150.13;6284975;22;20399;-56
2021/06/26 01:15:58;;;;;;;0.30;0.30;;;;;;;10.65;100.00;100155.13;6285413;22;20018;-55
2021/06/26 01:19:40;;;;;;;0.50;0.40;;;;;;;10.61;100.00;100158.03;6285681;22;20027;-55
2021/06/26 01:22:59;;;;;;;1.02;0.43;;;;;;;10.62;100.00;100151.25;6285033;22;20022;-56
2021/06/26 01:26:04;;;;;;;1.52;0.40;;;;;;;10.61;100.00;100160.09;6303419;22;20348;-56
2021/06/26 01:29:12;;;;;;;0.93;0.38;;;;;;;10.64;100.00;100154.34;6303233;22;20019;-56
2021/06/26 01:37:21;;;;;;;4.15;0.60;;;;;;;10.54;100.00;100155.59;6285865;22;20019;-56
2021/06/26 01:40:44;;;;;;;1.10;0.40;;;;;;;10.50;100.00;100154.97;6285585;22;20038;-55
2021/06/26 01:48:41;;;;;;;0.63;0.28;;;;;;;10.44;100.00;100145.72;6285322;22;20042;-54
2021/06/26 01:51:54;;;;;;;2.22;0.60;;;;;;;10.46;100.00;100142.47;6302891;22;20023;-55
2021/06/26 02:09:43;;;;;;;0.85;0.38;;;;;;;10.28;100.00;100140.50;6282914;22;20018;-55
2021/06/26 02:12:53;;;;;;;0.65;0.52;;;;;;;10.24;100.00;100142.69;6297566;22;20337;-52
2021/06/26 02:15:56;;;;;;;2.17;0.85;;;;;;;10.25;100.00;100143.44;6281766;22;20019;-52
2021/06/26 02:19:00;;;;;;;1.17;0.85;;;;;;;10.30;100.00;100142.81;6279962;22;20030;-52
2021/06/26 02:22:03;;;;;;;4.13;0.57;;;;;;;10.37;100.00;100145.28;6280286;22;20356;-54
2021/06/26 02:25:07;;;;;;;1.17;0.65;;;;;;;10.40;100.00;100138.75;6279784;22;20023;-50
2021/06/26 02:28:10;;;;;;;0.38;0.20;;;;;;;10.40;100.00;100139.53;6280180;22;20470;-53
2021/06/26 02:31:14;;;;;;;0.68;0.47;;;;;;;10.43;100.00;100143.41;6280014;22;20031;-55
2021/06/26 02:34:19;;;;;;;0.73;0.40;;;;;;;10.40;100.00;100133.97;6280466;22;20368;-52
2021/06/26 02:37:23;;;;;;;0.32;0.28;;;;;;;10.41;100.00;100143.88;6279963;22;20038;-52
2021/06/26 02:40:27;;;;;;;1.08;0.20;;;;;;;10.41;100.00;100141.09;6280307;22;20038;-54
2021/06/26 02:43:30;;;;;;;0.40;0.38;;;;;;;10.47;100.00;100141.22;6280078;22;20030;-49
2021/06/26 02:46:33;;;;;;;0.77;0.50;;;;;;;10.28;100.00;100134.16;6279941;22;20023;-53
2021/06/26 02:49:37;;;;;;;0.55;0.28;;;;;;;10.25;100.00;100127.50;6279484;22;20340;-52
2021/06/26 02:52:41;;;;;;;1.52;0.88;;;;;;;10.26;100.00;100134.63;6280142;22;20357;-53
2021/06/26 02:55:44;;;;;;;2.10;1.10;;;;;;;10.30;100.00;100129.66;6279918;22;20253;-53
2021/06/26 02:58:48;;;;;;;0.77;0.45;;;;;;;10.25;100.00;100130.28;6280419;22;20030;-52
2021/06/26 03:01:51;;;;;;;0.50;0.50;;;;;;;10.23;100.00;100135.56;6279635;22;20170;-53
2021/06/26 03:09:29;;;;;;;5.47;0.85;;;;;;;10.17;100.00;100140.19;6279845;22;20043;-54
2021/06/26 03:12:32;;;;;;;1.35;0.80;;;;;;;10.21;100.00;100140.03;6268476;22;20043;-52
2021/06/26 03:15:36;;;;;;;1.48;0.60;;;;;;;10.19;100.00;100136.94;6279455;22;20022;-52
2021/06/26 03:18:43;;;;;;;0.32;0.32;;;;;;;10.23;100.00;100149.47;6279755;22;20026;-54
2021/06/26 03:21:47;;;;;;;0.40;0.32;;;;;;;10.19;100.00;100148.84;6279604;22;20026;-53
2021/06/26 03:24:50;;;;;;;0.52;0.20;;;;;;;10.16;100.00;100141.44;6279760;22;20030;-52
2021/06/26 03:27:53;;;;;;;1.20;0.38;;;;;;;10.16;100.00;100144.22;6279301;22;20027;-53
2021/06/26 03:30:57;;;;;;;0.22;0.20;;;;;;;10.17;100.00;100143.00;6278794;22;20026;-53
2021/06/26 03:34:00;;;;;;;1.13;0.20;;;;;;;10.21;100.00;100148.38;6279879;22;20030;-54
2021/06/26 03:37:04;;;;;;;0.65;0.30;;;;;;;10.25;100.00;100146.22;6280173;22;20498;-50
2021/06/26 03:40:09;;;;;;;1.38;0.65;;;;;;;10.19;100.00;100146.06;6279482;22;20038;-53
2021/06/26 03:43:12;;;;;;;0.40;0.40;;;;;;;10.18;100.00;100152.88;6280338;22;20022;-54
2021/06/26 03:46:15;;;;;;;0.30;0.30;;;;;;;10.17;100.00;100154.13;6279778;22;20019;-53
2021/06/26 03:49:18;;;;;;;3.03;1.85;;;;;;;10.10;100.00;100165.53;6279769;22;20023;-51
2021/06/26 03:52:22;;;;;;;0.20;0.13;;;;;;;10.11;100.00;100160.78;6280974;22;20026;-52
2021/06/26 03:55:25;;;;;;;0.20;0.20;;;;;;;10.14;100.00;100165.41;6281029;22;20023;-53
2021/06/26 03:58:29;;;;;;;0.88;0.40;;;;;;;10.16;100.00;100163.69;6280000;22;20469;-54
2021/06/26 04:01:34;;;;;;;0.40;0.40;;;;;;;10.16;100.00;100163.69;6281202;22;20026;-51
2021/06/26 04:04:38;;;;;;;9.10;0.85;;;;;;;10.13;100.00;100164.66;6280556;22;20026;-52
2021/06/26 04:07:42;;;;;;;0.28;0.28;;;;;;;10.09;100.00;100163.22;6281378;22;20471;-54
2021/06/26 04:10:45;;;;;;;0.75;0.43;;;;;;;10.04;100.00;100159.03;6278072;22;20031;-52
2021/06/26 04:13:49;;;;;;;0.65;0.40;;;;;;;10.03;100.00;100160.28;6281252;22;20046;-50
2021/06/26 04:16:53;;;;;;;0.22;0.13;;;;;;;10.05;100.00;100165.38;6280229;22;20022;-49
2021/06/26 04:19:56;;;;;;;3.05;0.80;;;;;;;10.02;100.00;100158.75;6281112;22;20046;-54
2021/06/26 04:22:59;;;;;;;0.45;0.30;;;;;;;10.02;100.00;100163.53;6280978;22;20490;-53
2021/06/26 04:26:03;;;;;;;0.50;0.30;;;;;;;10.00;100.00;100171.56;6281164;22;20070;-54
2021/06/26 04:29:07;;;;;;;2.38;0.60;;;;;;;9.97;100.00;100169.69;6280557;22;20336;-54
2021/06/26 04:32:11;;;;;;;0.90;0.55;;;;;;;9.94;100.00;100168.59;6281196;22;20341;-54
2021/06/26 04:35:19;;;;;;;0.63;0.50;;;;;;;9.91;100.00;100169.56;6280980;22;20026;-53
2021/06/26 04:38:23;;;;;;;0.40;0.32;;;;;;;9.85;100.00;100155.47;6281202;22;20277;-51
2021/06/26 04:41:27;;;;;;;0.75;0.30;;;;;;;9.91;100.00;100152.88;6280641;22;20349;-54
2021/06/26 04:44:31;;;;;;;0.60;0.50;;;;;;;9.77;100.00;100170.16;6281246;22;20026;-53
2021/06/26 04:47:34;;;;;;;1.52;0.40;;;;;;;9.71;100.00;100166.44;6281078;22;20024;-54
2021/06/26 04:50:38;;;;;;;0.65;0.65;;;;;;;9.63;100.00;100174.31;6281076;22;20022;-53
2021/06/26 04:53:42;;;;;;;1.13;0.30;;;;;;;9.54;100.00;100167.97;6280303;22;20043;-54
2021/06/26 04:56:45;;;;;;;0.90;0.40;;;;;;;9.52;100.00;100173.22;6280050;22;20348;-54
2021/06/26 04:59:48;;;;;;;0.60;0.60;;;;;;;9.53;100.00;100172.75;6280877;22;20042;-55
2021/06/26 05:02:52;;;;;;;0.70;0.43;;;;;;;9.51;100.00;100163.31;6281138;22;20324;-54
2021/06/26 05:05:56;;;;;;;0.63;0.17;;;;;;;9.53;100.00;100163.66;6280504;22;20349;-53
2021/06/26 05:09:00;;;;;;;0.77;0.38;;;;;;;9.59;100.00;100164.59;6281190;22;20270;-53
2021/06/26 05:12:05;;;;;;;2.72;0.22;;;;;;;9.50;100.00;100167.34;6272543;22;20031;-52
2021/06/26 05:15:10;;;;;;;0.90;0.47;;;;;;;9.47;100.00;100171.81;6280517;22;20030;-52
2021/06/26 05:18:15;;;;;;;0.17;0.17;;;;;;;9.44;100.00;100175.50;6280022;22;20023;-55
2021/06/26 05:21:19;;;;;;;3.03;0.57;;;;;;;9.46;100.00;100172.28;6297161;22;20027;-55
2021/06/26 05:24:28;;;;;;;0.38;0.30;;;;;;;9.59;100.00;100172.94;6280173;22;20372;-55
2021/06/26 05:27:39;;;;;;;0.30;0.30;;;;;;;9.65;100.00;100168.28;6280508;22;20042;-54
2021/06/26 05:30:49;;;;;;;0.90;0.55;;;;;;;9.72;100.00;100179.88;6280283;22;20030;-51
2021/06/26 05:33:54;;;;;;;0.98;0.28;;;;;;;9.75;100.00;100183.75;6261910;22;20335;-53
2021/06/26 05:37:09;;;;;;;0.70;0.70;;;;;;;9.74;100.00;100187.78;6279897;22;20085;-52
2021/06/26 05:40:20;;;;;;;0.35;0.35;;;;;;;9.82;100.00;100183.47;6296864;22;20019;-53
2021/06/26 05:43:24;;;;;;;1.00;0.43;;;;;;;9.86;100.00;100190.41;6279924;22;20018;-53
2021/06/26 05:46:28;;;;;;;1.38;0.52;;;;;;;9.90;100.00;100196.59;6279842;22;20026;-52
2021/06/26 05:49:40;;;;;;;0.52;0.22;;;;;;;9.98;100.00;100190.72;6279193;22;20023;-53
2021/06/26 05:52:59;;;;;;;1.05;0.30;;;;;;;10.16;100.00;100205.44;6278445;22;20018;-52
2021/06/26 05:56:10;;;;;;;4.40;0.50;;;;;;;10.25;100.00;100207.44;6278508;22;20030;-53
2021/06/26 05:59:15;;;;;;;0.40;0.40;;;;;;;10.26;100.00;100203.44;6279742;22;20022;-50
2021/06/26 06:02:18;;;;;;;0.98;0.65;;;;;;;10.37;100.00;100207.28;6279799;22;20360;-50
2021/06/26 06:05:21;;;;;;;0.63;0.30;;;;;;;10.51;100.00;100215.00;6279756;22;20030;-53
2021/06/26 06:08:25;;;;;;;0.73;0.30;;;;;;;10.59;100.00;100219.00;6279329;22;20030;-54
2021/06/26 06:11:38;;;;;;;0.43;0.38;;;;;;;10.66;100.00;100215.91;6251301;22;20195;-54
2021/06/26 06:14:41;;;;;;;3.63;0.82;;;;;;;10.78;100.00;100214.19;6248606;23;20051;-52
2021/06/26 06:17:44;;;;;;;0.25;0.25;;;;;;;10.85;100.00;100213.09;6248562;23;20031;-52
2021/06/26 06:20:48;;;;;;;0.20;0.20;;;;;;;10.93;100.00;100215.06;6248188;23;20031;-52
2021/06/26 06:23:58;;;;;;;0.57;0.32;;;;;;;11.02;100.00;100214.28;6248517;23;20015;-53
2021/06/26 06:27:05;;;;;;;0.35;0.20;;;;;;;11.12;100.00;100210.19;6229918;23;20043;-52
2021/06/26 06:30:19;;;;;;;0.47;0.47;;;;;;;11.20;100.00;100214.19;6248137;23;20083;-55
2021/06/26 06:33:24;;;;;;;0.95;0.60;;;;;;;11.29;100.00;100220.50;6229373;23;20039;-50
2021/06/26 06:36:32;;;;;;;0.52;0.32;;;;;;;11.43;100.00;100224.63;6248455;23;20043;-53
2021/06/26 06:39:37;;;;;;;0.20;0.20;;;;;;;11.48;100.00;100226.75;6248511;23;20027;-52
2021/06/26 06:42:57;;;;;;;0.47;0.22;;;;;;;11.55;100.00;100226.41;6247836;23;20035;-54
2021/06/26 06:46:21;;;;;;;0.35;0.35;;;;;;;11.68;100.00;100235.38;6228864;23;20027;-54
2021/06/26 06:49:31;;;;;;;0.50;0.40;;;;;;;11.78;100.00;100234.06;6247428;23;20038;-52
2021/06/26 06:52:35;;;;;;;0.45;0.20;;;;;;;11.97;100.00;100235.50;6248560;23;20027;-53
2021/06/26 06:55:39;;;;;;;6.63;0.22;;;;;;;12.07;100.00;100233.41;6249337;23;20023;-54
2021/06/26 06:58:42;;;;;;;1.08;0.57;;;;;;;12.12;100.00;100229.97;6249009;23;20031;-52
2021/06/26 07:01:46;;;;;;;1.30;0.52;;;;;;;12.11;100.00;100223.59;6249329;23;20027;-52
2021/06/26 07:04:50;;;;;;;0.77;0.52;;;;;;;12.15;100.00;100235.34;6248686;23;20365;-52
2021/06/26 07:07:54;;;;;;;0.20;0.20;;;;;;;12.35;100.00;100229.13;6247694;23;20027;-53
2021/06/26 07:10:58;;;;;;;0.93;0.30;;;;;;;12.63;100.00;100240.84;6245659;22;20031;-53
2021/06/26 07:14:01;;;;;;;0.47;0.20;;;;;;;12.91;100.00;100230.91;6249393;23;20392;-51
2021/06/26 07:17:05;;;;;;;1.85;0.50;;;;;;;13.05;100.00;100232.97;6249106;23;20498;-51
2021/06/26 07:20:09;;;;;;;0.22;0.22;;;;;;;13.02;100.00;100227.53;6248512;23;20026;-54
2021/06/26 07:23:13;;;;;;;1.27;0.47;;;;;;;13.06;100.00;100228.91;6248994;23;20580;-53
2021/06/26 07:26:17;;;;;;;0.38;0.38;;;;;;;13.11;100.00;100222.66;6250580;23;20581;-54
2021/06/26 07:29:21;;;;;;;0.20;0.20;;;;;;;13.17;100.00;100219.94;6250897;23;20043;-53
2021/06/26 07:32:24;;;;;;;0.40;0.30;;;;;;;13.28;100.00;100226.47;6250966;23;20027;-52
2021/06/26 07:35:28;;;;;;;0.68;0.40;;;;;;;13.72;100.00;100217.19;6251305;23;20023;-54
2021/06/26 07:38:38;;;;;;;0.95;0.65;;;;;;;14.24;100.00;100214.06;6251217;23;20471;-53
2021/06/26 07:41:43;;;;;;;1.10;0.43;;;;;;;14.68;100.00;100213.78;6232595;23;20023;-52
2021/06/26 07:44:46;;;;;;;0.35;0.35;;;;;;;14.91;100.00;100209.91;6250647;23;20241;-45
2021/06/26 07:47:50;;;;;;;0.20;0.10;;;;;;;15.00;100.00;100212.53;6250680;23;20330;-46
2021/06/26 07:50:53;;;;;;;0.52;0.20;;;;;;;14.96;100.00;100212.00;6251001;23;20031;-54
2021/06/26 07:53:57;;;;;;;0.30;0.10;;;;;;;14.85;100.00;100214.72;6250641;23;20023;-55
2021/06/26 07:57:00;;;;;;;0.32;0.10;;;;;;;14.71;100.00;100209.97;6250458;23;20068;-53
2021/06/26 08:00:08;;;;;;;1.20;0.30;;;;;;;14.62;100.00;100204.53;6250218;23;20472;-54
2021/06/26 08:03:12;;;;;;;0.10;0.10;;;;;;;14.65;100.00;100209.16;6231821;23;20027;-52
2021/06/26 08:06:15;;;;;;;2.67;0.47;;;;;;;14.71;100.00;100218.38;6250281;23;20078;-54
2021/06/26 08:09:19;;;;;;;0.80;0.30;;;;;;;14.84;100.00;100215.97;6250198;23;20023;-55
2021/06/26 08:12:22;;;;;;;0.20;0.10;;;;;;;15.00;100.00;100212.53;6268828;22;20498;-52
2021/06/26 08:15:26;;;;;;;0.20;0.20;;;;;;;15.10;100.00;100208.28;6280929;22;20501;-52
2021/06/26 08:18:30;;;;;;;0.20;0.10;;;;;;;15.31;100.00;100220.16;6298351;22;20038;-53
2021/06/26 08:21:33;;;;;;;0.20;0.13;;;;;;;15.43;100.00;100215.41;6281409;22;20027;-50
2021/06/26 08:24:37;;;;;;;0.35;0.20;;;;;;;15.68;100.00;100206.16;6281481;22;20027;-55
2021/06/26 08:27:41;;;;;;;0.20;0.17;;;;;;;15.82;100.00;100214.41;6281020;22;20042;-53
2021/06/26 08:30:44;;;;;;;0.32;0.20;;;;;;;16.24;100.00;100205.09;6281354;22;20027;-55
2021/06/26 08:33:48;;;;;;;0.65;0.10;;;;;;;16.53;100.00;100218.78;6279956;22;20022;-54
2021/06/26 08:36:51;;;;;;;0.20;0.10;;;;;;;17.14;100.00;100201.97;6281120;22;20478;-52
2021/06/26 08:39:59;;;;;;;1.33;0.32;;;;;;;17.52;100.00;100214.47;6280905;22;20027;-53
2021/06/26 08:43:11;;;;;;;0.90;0.25;;;;;;;17.91;100.00;100220.03;6277014;22;20459;-46
2021/06/26 08:46:16;;;;;;;3.65;0.10;;;;;;;17.95;100.00;100218.44;6292436;22;20023;-46
2021/06/26 08:49:19;;;;;;;0.10;0.00;;;;;;;18.05;100.00;100213.31;6277252;22;20368;-46
2021/06/26 08:52:23;;;;;;;0.20;0.00;;;;;;;17.58;100.00;100211.66;6278081;22;20376;-46
2021/06/26 08:55:26;;;;;;;0.30;0.10;;;;;;;17.30;100.00;100222.94;6277767;22;20019;-46
2021/06/26 08:58:30;;;;;;;0.60;0.10;;;;;;;17.28;100.00;100222.69;6277729;22;20030;-46
2021/06/26 09:01:35;;;;;;;0.32;0.10;;;;;;;17.40;100.00;100219.34;6277647;22;20269;-46
2021/06/26 09:04:39;;;;;;;0.98;0.15;;;;;;;17.53;100.00;100226.50;6278011;22;20245;-47
2021/06/26 09:07:43;;;;;;;0.57;0.20;;;;;;;18.17;100.00;100232.47;6277869;22;20018;-46
2021/06/26 09:10:48;;;;;;;0.20;0.20;;;;;;;18.35;100.00;100227.50;6291051;22;20026;-45
2021/06/26 09:13:52;;;;;;;0.65;0.15;;;;;;;18.28;100.00;100234.47;6277474;22;20027;-45
2021/06/26 09:16:56;;;;;;;0.52;0.20;;;;;;;17.92;100.00;100235.63;6277621;22;20483;-46
2021/06/26 09:20:06;;;;;;;0.77;0.20;;;;;;;17.76;100.00;100231.56;6276125;22;20023;-46
2021/06/26 09:23:16;;;;;;;1.88;0.20;;;;;;;18.17;100.00;100232.47;6276845;22;20285;-47
2021/06/26 09:26:20;;;;;;;4.00;0.40;;;;;;;18.21;100.00;100228.63;6277144;22;20353;-46
2021/06/26 09:29:27;;;;;;;0.52;0.20;;;;;;;18.46;100.00;100227.50;6280475;22;20022;-46
2021/06/26 09:32:31;;;;;;;0.50;0.10;;;;;;;18.47;100.00;100223.41;6280103;22;20023;-46
2021/06/26 09:35:34;;;;;;;1.70;0.30;;;;;;;18.18;100.00;100227.59;6280446;22;20070;-45
2021/06/26 09:38:56;;;;;;;1.40;0.38;;;;;;;17.97;100.00;100227.19;6280971;22;20027;-46
2021/06/26 09:41:59;;;;;;;0.25;0.10;;;;;;;17.97;100.00;100227.19;6281085;22;20031;-45
2021/06/26 09:45:06;;;;;;;4.35;0.35;;;;;;;18.07;100.00;100242.50;6280673;22;20026;-45
2021/06/26 09:48:09;;;;;;;1.33;0.73;;;;;;;18.00;100.00;100231.00;6280671;22;20027;-45
2021/06/26 09:51:18;;;;;;;0.65;0.20;;;;;;;17.92;100.00;100246.91;6280747;22;20026;-46
2021/06/26 09:54:26;;;;;;;0.30;0.22;;;;;;;18.00;100.00;100242.25;6280641;22;20022;-45
2021/06/26 09:57:34;;;;;;;0.55;0.20;;;;;;;17.95;100.00;100251.53;6280940;22;20337;-45
2021/06/26 10:00:42;;;;;;;0.57;0.05;;;;;;;17.93;100.00;100254.84;6280973;22;20022;-46
2021/06/26 10:03:49;;;;;;;0.40;0.10;;;;;;;18.34;100.00;100254.97;6280585;22;20026;-46
2021/06/26 10:06:54;;;;;;;0.57;0.10;;;;;;;18.40;100.00;100257.75;6280481;22;20055;-46
2021/06/26 10:09:59;;;;;;;0.45;0.30;;;;;;;17.74;100.00;100255.91;6280396;22;20027;-46
2021/06/26 10:13:03;;;;;;;0.20;0.15;;;;;;;17.07;100.00;100257.97;6280189;22;20025;-46
2021/06/26 10:16:08;;;;;;;0.55;0.28;;;;;;;17.01;100.00;100257.22;6280519;22;20042;-46
2021/06/26 10:19:13;;;;;;;1.75;0.32;;;;;;;17.02;100.00;100256.69;6280453;22;20026;-46
2021/06/26 10:22:16;;;;;;;1.80;0.30;;;;;;;17.44;100.00;100253.63;6280571;22;20023;-45
2021/06/26 10:25:21;;;;;;;0.50;0.10;;;;;;;18.13;100.00;100251.72;6280554;22;20019;-45
2021/06/26 10:28:25;;;;;;;1.35;0.30;;;;;;;18.61;100.00;100250.50;6280361;22;20022;-46
2021/06/26 10:31:31;;;;;;;0.45;0.15;;;;;;;18.77;100.00;100258.88;6280441;22;20031;-45
2021/06/26 10:34:44;;;;;;;1.10;0.38;;;;;;;18.89;100.00;100265.97;6280220;22;20023;-46
2021/06/26 10:38:11;;;;;;;1.00;0.82;;;;;;;19.11;100.00;100256.56;6280491;22;20075;-46
2021/06/26 10:41:17;;;;;;;0.20;0.05;;;;;;;19.24;100.00;100270.84;6280147;22;20026;-46
2021/06/26 10:44:20;;;;;;;0.45;0.20;;;;;;;18.97;100.00;100277.47;6280653;22;20019;-46
2021/06/26 10:47:37;;;;;;;0.35;0.30;;;;;;;19.07;100.00;100275.09;6279775;22;20042;-46
2021/06/26 10:50:50;;;;;;;1.23;0.40;;;;;;;19.35;100.00;100278.50;6280571;22;20042;-46
2021/06/26 10:53:53;;;;;;;2.25;0.80;;;;;;;19.54;100.00;100276.53;6280316;22;20042;-46
2021/06/26 10:57:03;;;;;;;0.75;0.20;;;;;;;19.79;100.00;100271.66;6280228;22;20031;-46
2021/06/26 11:00:09;;;;;;;0.55;0.50;;;;;;;20.02;100.00;100276.56;6281158;22;20027;-46
2021/06/26 11:03:21;;;;;;;0.52;0.28;;;;;;;20.20;100.00;100275.06;6282500;22;20027;-46
2021/06/26 11:06:27;;;;;;;1.10;0.20;;;;;;;19.95;100.00;100279.97;6282210;22;20022;-46
2021/06/26 11:09:41;;;;;;;0.90;0.32;;;;;;;19.95;100.00;100279.97;6281893;22;20027;-46
2021/06/26 11:12:46;;;;;;;1.27;0.30;;;;;;;20.03;100.00;100282.97;6281519;22;20030;-45
2021/06/26 11:15:50;;;;;;;1.23;0.47;;;;;;;19.85;100.00;100292.16;6280489;22;20042;-46
2021/06/26 11:19:12;;;;;;;3.20;0.32;;;;;;;19.40;100.00;100298.22;6277462;22;20018;-46
2021/06/26 11:22:22;;;;;;;0.80;0.22;;;;;;;19.06;100.00;100296.91;6294307;22;20337;-53
2021/06/26 11:25:29;;;;;;;0.63;0.28;;;;;;;18.80;100.00;100297.31;6277232;22;20022;-50
2021/06/26 11:28:42;;;;;;;0.30;0.20;;;;;;;18.67;100.00;100293.53;6294533;22;20487;-53
2021/06/26 11:31:46;;;;;;;0.85;0.30;;;;;;;18.44;100.00;100300.53;6276914;22;20022;-53
2021/06/26 11:35:02;;;;;;;0.98;0.30;;;;;;;18.26;100.00;100304.72;6277723;22;20047;-50
2021/06/26 11:38:13;;;;;;;0.40;0.25;;;;;;;18.27;100.00;100302.66;6277345;22;20218;-52
2021/06/26 11:41:17;;;;;;;4.80;0.17;;;;;;;18.10;100.00;100302.72;6278346;22;20026;-51
2021/06/26 11:44:35;;;;;;;1.55;0.38;;;;;;;18.09;100.00;100296.31;6277778;22;20023;-51
2021/06/26 11:47:39;;;;;;;0.20;0.10;;;;;;;18.33;100.00;100297.78;6277645;22;20023;-49
2021/06/26 11:50:50;;;;;;;0.40;0.38;;;;;;;19.16;100.00;100297.34;6277862;22;20027;-50
2021/06/26 11:53:54;;;;;;;1.55;0.57;;;;;;;19.97;100.00;100302.03;6280100;22;20482;-51
2021/06/26 11:56:57;;;;;;;0.40;0.10;;;;;;;20.27;100.00;100302.78;6281506;22;20026;-53
2021/06/26 12:00:04;;;;;;;0.35;0.10;;;;;;;20.18;100.00;100295.38;6281502;22;20030;-50
2021/06/26 12:03:18;;;;;;;0.82;0.38;;;;;;;19.93;100.00;100287.44;6281554;22;20238;-51
2021/06/26 12:06:46;;;;;;;0.28;0.00;;;;;;;19.67;100.00;100280.25;6281481;22;20026;-54
2021/06/26 12:09:50;;;;;;;0.77;0.40;;;;;;;19.99;100.00;100279.69;6281475;22;20042;-45
2021/06/26 12:12:54;;;;;;;0.68;0.30;;;;;;;19.75;100.00;100282.50;6280415;22;20026;-46
2021/06/26 12:15:58;;;;;;;0.25;0.25;;;;;;;19.54;100.00;100280.13;6279823;22;20043;-46
2021/06/26 12:19:10;;;;;;;0.63;0.20;;;;;;;19.40;100.00;100281.28;6281111;22;20030;-46
2021/06/26 12:22:21;;;;;;;0.68;0.20;;;;;;;19.16;100.00;100289.66;6280711;22;20030;-46
2021/06/26 12:25:35;;;;;;;0.52;0.15;;;;;;;18.91;100.00;100290.84;6280919;22;20048;-45
2021/06/26 12:28:41;;;;;;;0.28;0.22;;;;;;;18.65;100.00;100293.28;6280772;22;20023;-46
2021/06/26 12:31:45;;;;;;;0.63;0.20;;;;;;;18.54;100.00;100282.06;6281171;22;20023;-45
2021/06/26 12:34:49;;;;;;;0.10;0.10;;;;;;;18.55;100.00;100292.06;6280581;22;20106;-46
2021/06/26 12:37:52;;;;;;;0.30;0.30;;;;;;;18.81;100.00;100290.41;6280827;22;20026;-46
2021/06/26 12:40:56;;;;;;;0.40;0.30;;;;;;;19.05;100.00;100286.13;6281232;22;20364;-46
2021/06/26 12:44:01;;;;;;;0.30;0.10;;;;;;;19.18;100.00;100300.41;6280935;22;20026;-46
2021/06/26 12:47:08;;;;;;;0.98;0.45;;;;;;;19.35;100.00;100301.84;6280851;22;20027;-45
2021/06/26 12:50:14;;;;;;;0.63;0.10;;;;;;;19.51;100.00;100294.53;6280572;22;20086;-46
2021/06/26 12:53:18;;;;;;;0.60;0.25;;;;;;;19.55;100.00;100292.97;6279371;22;20019;-46
2021/06/26 12:56:32;;;;;;;0.45;0.25;;;;;;;19.69;100.00;100285.38;6280729;22;20546;-46
2021/06/26 12:59:35;;;;;;;0.30;0.22;;;;;;;19.96;100.00;100292.06;6279361;22;20490;-45
2021/06/26 13:02:39;;;;;;;0.95;0.30;;;;;;;20.27;100.00;100288.66;6280411;22;20254;-46
2021/06/26 13:05:43;;;;;;;0.35;0.35;;;;;;;20.55;100.00;100274.94;6280722;22;20023;-47
2021/06/26 13:08:49;;;;;;;0.28;0.10;;;;;;;20.47;100.00;100279.63;6279833;22;20027;-46
2021/06/26 13:11:52;;;;;;;1.55;0.55;;;;;;;20.91;100.00;100279.03;6271824;22;20058;-46
2021/06/26 13:14:57;;;;;;;1.70;0.50;;;;;;;21.03;100.00;100290.97;6280286;22;20027;-45
2021/06/26 13:18:00;;;;;;;0.85;0.30;;;;;;;20.75;100.00;100282.88;6280027;22;20345;-46
2021/06/26 13:21:13;;;;;;;4.18;0.50;;;;;;;20.72;100.00;100278.28;6280621;22;20050;-45
2021/06/26 13:24:18;;;;;;;0.38;0.28;;;;;;;20.78;100.00;100273.31;6280229;22;20022;-46
2021/06/26 13:27:24;;;;;;;1.05;0.25;;;;;;;20.68;100.00;100277.81;6280264;22;20034;-46
2021/06/26 13:30:28;;;;;;;1.48;0.32;;;;;;;20.80;100.00;100267.88;6280296;22;20026;-46
2021/06/26 13:33:31;;;;;;;1.85;0.10;;;;;;;21.08;100.00;100259.75;6280306;22;20019;-46
2021/06/26 13:36:35;;;;;;;5.88;0.35;;;;;;;21.38;100.00;100247.41;6280145;22;20027;-46
2021/06/26 13:39:40;;;;;;;0.90;0.30;;;;;;;21.38;100.00;100253.09;6280112;22;20038;-47
2021/06/26 13:42:44;;;;;;;1.17;0.28;;;;;;;20.98;100.00;100250.13;6280188;22;20394;-47
2021/06/26 13:45:47;;;;;;;0.35;0.15;;;;;;;20.32;100.00;100257.47;6280518;22;20026;-47
2021/06/26 13:48:51;;;;;;;0.63;0.45;;;;;;;20.00;100.00;100258.59;6280434;22;20356;-47
2021/06/26 13:51:55;;;;;;;0.10;0.10;;;;;;;19.92;100.00;100246.34;6280294;22;20034;-47
2021/06/26 13:54:59;;;;;;;1.23;0.40;;;;;;;19.85;100.00;100249.75;6280044;22;20341;-46
2021/06/26 13:58:03;;;;;;;0.10;0.10;;;;;;;19.92;100.00;100240.69;6280363;22;20026;-46
2021/06/26 14:01:06;;;;;;;0.52;0.30;;;;;;;19.96;100.00;100241.94;6297177;22;20046;-46
2021/06/26 14:04:10;;;;;;;0.45;0.25;;;;;;;20.02;100.00;100239.03;6280487;22;20019;-47
2021/06/26 14:07:14;;;;;;;0.47;0.30;;;;;;;20.20;100.00;100238.31;6280475;22;20356;-47
2021/06/26 14:10:17;;;;;;;0.43;0.15;;;;;;;20.40;100.00;100227.25;6279675;22;20031;-45
2021/06/26 14:13:21;;;;;;;1.10;0.30;;;;;;;20.58;100.00;100220.06;6280281;22;20486;-47
2021/06/26 14:16:25;;;;;;;3.03;0.63;;;;;;;20.84;100.00;100223.03;6279948;22;20047;-47
2021/06/26 14:19:28;;;;;;;0.85;0.10;;;;;;;20.96;100.00;100221.53;6278889;22;20042;-47
2021/06/26 14:22:32;;;;;;;1.20;0.30;;;;;;;20.83;100.00;100206.59;6280580;22;20071;-47
2021/06/26 14:25:35;;;;;;;1.30;0.30;;;;;;;20.41;100.00;100208.22;6279938;22;20022;-47
2021/06/26 14:28:42;;;;;;;1.75;0.20;;;;;;;20.20;100.00;100205.16;6279870;22;20122;-46
2021/06/26 14:31:46;;;;;;;0.55;0.10;;;;;;;20.28;100.00;100205.31;6280040;22;20022;-46
2021/06/26 14:34:50;;;;;;;0.55;0.20;;;;;;;19.59;100.00;100213.56;6280032;22;20467;-46
2021/06/26 14:37:54;;;;;;;0.38;0.30;;;;;;;19.86;100.00;100208.91;6279842;22;20467;-47
2021/06/26 14:40:59;;;;;;;0.82;0.20;;;;;;;19.71;100.00;100208.56;6279029;22;20604;-45
2021/06/26 14:44:03;;;;;;;0.80;0.20;;;;;;;19.41;100.00;100212.19;6279629;22;20019;-47
2021/06/26 14:47:07;;;;;;;0.73;0.30;;;;;;;19.41;100.00;100212.19;6280267;22;20038;-47
2021/06/26 14:50:11;;;;;;;1.80;0.38;;;;;;;19.61;100.00;100210.97;6279485;22;20062;-46
2021/06/26 14:53:16;;;;;;;0.47;0.30;;;;;;;20.10;100.00;100206.78;6279774;22;20027;-46
2021/06/26 14:56:19;;;;;;;0.57;0.25;;;;;;;20.63;100.00;100207.91;6279367;22;20031;-47
2021/06/26 14:59:23;;;;;;;4.35;2.67;;;;;;;20.80;100.00;100204.81;6279358;22;20027;-47
2021/06/26 15:02:26;;;;;;;0.63;0.40;;;;;;;20.81;100.00;100204.28;6279601;22;20022;-47
2021/06/26 15:05:30;;;;;;;0.60;0.22;;;;;;;20.87;100.00;100207.81;6279993;22;20019;-47
2021/06/26 15:08:33;;;;;;;1.27;0.40;;;;;;;21.19;100.00;100215.56;6280037;22;20023;-47
2021/06/26 15:11:36;;;;;;;2.17;0.57;;;;;;;20.79;100.00;100221.03;6273761;22;20031;-47
2021/06/26 15:14:40;;;;;;;14.27;5.05;;;;;;;20.55;100.00;100218.31;6279631;22;20027;-47
2021/06/26 15:17:43;;;;;;;1.98;0.50;;;;;;;20.91;100.00;100216.75;6279314;22;20023;-48
2021/06/26 15:20:47;;;;;;;1.05;0.22;;;;;;;21.11;100.00;100221.84;6279542;22;20114;-47
2021/06/26 15:23:51;;;;;;;0.68;0.13;;;;;;;20.82;100.00;100222.81;6279657;22;20022;-47
2021/06/26 15:26:55;;;;;;;2.08;0.20;;;;;;;21.05;100.00;100209.09;6280011;22;20042;-46
2021/06/26 15:29:59;;;;;;;5.05;0.93;;;;;;;20.84;100.00;100206.03;6278624;22;20459;-46
2021/06/26 15:33:03;;;;;;;10.70;2.03;;;;;;;20.46;100.00;100210.22;6278595;22;20352;-46
2021/06/26 15:36:07;;;;;;;9.20;2.92;;;;;;;20.43;100.00;100214.09;6277059;22;20016;-46
2021/06/26 15:39:13;;;;;;;1.77;0.40;;;;;;;20.30;100.00;100214.78;6276527;22;20046;-46
2021/06/26 15:42:17;;;;;;;0.43;0.20;;;;;;;20.08;100.00;100211.44;6276520;22;20026;-46
2021/06/26 15:45:22;;;;;;;0.47;0.30;;;;;;;19.92;100.00;100206.78;6276746;22;20014;-46
2021/06/26 15:48:26;;;;;;;2.92;0.20;;;;;;;19.94;100.00;100216.25;6279937;22;20027;-46
2021/06/26 15:51:33;;;;;;;1.38;0.30;;;;;;;20.00;100.00;100207.69;6279452;22;20027;-45